Time;durP1;ratioP1;P1;durP2;ratioP2;P2;SDS_P1;SDS_P2;PMS_P1;PMS_P2;Temp;Humidity;BMP_temperature;BMP_pressure;BME280_temperature;BME280_humidity;BME280_pressure;Samples;Min_cycle;Max_cycle;Signal;HPM_P1;HPM_P2
2022/12/22 03:29:36;;;;;;;169.77;52.38;;;;;;;7.56;100.00;100210.91;10564861;28;20515;-77
2022/12/22 03:34:36;;;;;;;147.10;50.17;;;;;;;7.55;100.00;100200.22;10508126;28;20103;-77
2022/12/22 03:39:37;;;;;;;157.13;50.88;;;;;;;7.56;100.00;100210.06;10509009;28;20039;-76
2022/12/22 03:49:56;;;;;;;160.02;52.15;;;;;;;7.51;100.00;100188.91;10527745;28;20051;-77
2022/12/22 03:54:57;;;;;;;141.75;51.45;;;;;;;7.56;100.00;100199.13;10507917;28;20484;-77
2022/12/22 03:59:57;;;;;;;148.02;50.85;;;;;;;7.53;100.00;100191.41;10532398;28;20044;-77
2022/12/22 04:04:58;;;;;;;146.85;52.25;;;;;;;7.55;100.00;100198.31;10536757;28;20353;-77
2022/12/22 04:15:17;;;;;;;130.90;51.53;;;;;;;7.57;100.00;100189.84;10526162;28;20051;-77
2022/12/22 04:20:18;;;;;;;140.90;48.28;;;;;;;7.56;100.00;100190.91;10523778;28;20518;-77
2022/12/22 04:25:18;;;;;;;135.68;48.80;;;;;;;7.56;100.00;100191.72;10506753;28;20484;-77
2022/12/22 04:30:19;;;;;;;127.28;49.88;;;;;;;7.50;100.00;100175.47;10505892;28;20044;-76
2022/12/22 04:35:20;;;;;;;126.38;45.60;;;;;;;7.54;100.00;100179.38;10506731;28;20036;-77
2022/12/22 04:40:20;;;;;;;135.27;48.15;;;;;;;7.52;100.00;100181.53;10520722;28;20480;-77
2022/12/22 04:45:21;;;;;;;132.88;45.78;;;;;;;7.46;100.00;100172.41;10522720;28;20044;-76
2022/12/22 04:50:21;;;;;;;120.93;46.03;;;;;;;7.46;100.00;100165.03;10539861;28;20040;-71
2022/12/22 04:55:21;;;;;;;114.00;42.28;;;;;;;7.41;100.00;100156.72;10523045;28;20476;-77
2022/12/22 05:00:22;;;;;;;119.18;46.05;;;;;;;7.37;100.00;100147.34;10545790;28;20050;-77
2022/12/22 05:05:22;;;;;;;156.65;43.50;;;;;;;7.24;100.00;100136.75;10522562;28;20408;-77
2022/12/22 05:10:23;;;;;;;128.10;45.75;;;;;;;7.05;100.00;100133.47;10503195;28;20063;-77
2022/12/22 05:15:25;;;;;;;129.15;45.70;;;;;;;7.08;100.00;100143.91;10504023;28;20040;-77
2022/12/22 05:20:27;;;;;;;145.10;48.03;;;;;;;7.15;100.00;100146.47;10521500;28;20095;-76
2022/12/22 05:25:28;;;;;;;161.20;46.10;;;;;;;7.22;100.00;100147.13;10501992;28;20032;-77
2022/12/22 05:30:28;;;;;;;141.80;45.67;;;;;;;7.21;100.00;100151.78;10520778;28;20484;-77
2022/12/22 05:35:29;;;;;;;177.20;47.03;;;;;;;7.29;100.00;100156.00;10536626;28;20669;-76
2022/12/22 05:40:29;;;;;;;145.77;51.85;;;;;;;7.25;100.00;100149.34;10529708;28;20122;-78
2022/12/22 05:45:30;;;;;;;146.20;48.70;;;;;;;7.35;100.00;100165.94;10511384;28;20036;-74
2022/12/22 05:50:31;;;;;;;155.70;48.78;;;;;;;7.37;100.00;100172.00;10545981;28;20051;-77
2022/12/22 05:55:32;;;;;;;181.32;49.65;;;;;;;7.31;100.00;100159.31;10529202;28;20039;-77
2022/12/22 06:00:32;;;;;;;146.05;51.30;;;;;;;7.27;100.00;100166.38;10527662;28;20062;-76
2022/12/22 06:05:33;;;;;;;155.90;50.60;;;;;;;7.43;100.00;100178.38;10510954;28;20419;-77
2022/12/22 06:10:33;;;;;;;154.88;49.88;;;;;;;7.38;100.00;100170.94;10561611;28;20073;-77
2022/12/22 06:15:34;;;;;;;154.65;50.13;;;;;;;7.42;100.00;100173.97;10528020;28;20051;-77
2022/12/22 06:20:34;;;;;;;173.07;51.88;;;;;;;7.42;100.00;100184.94;10549603;28;20121;-77
2022/12/22 06:25:35;;;;;;;177.55;54.50;;;;;;;7.42;100.00;100176.72;10553064;27;20062;-78
2022/12/22 06:30:35;;;;;;;173.52;51.15;;;;;;;7.32;100.00;100182.88;10567144;27;20047;-74
2022/12/22 06:35:36;;;;;;;170.35;52.72;;;;;;;7.18;100.00;100187.03;10529557;28;20956;-77
2022/12/22 06:40:36;;;;;;;194.25;53.50;;;;;;;7.10;100.00;100187.44;10545710;28;20115;-78
2022/12/22 06:45:40;;;;;;;173.30;52.83;;;;;;;7.03;100.00;100202.13;10545754;28;20113;-78
2022/12/22 06:50:42;;;;;;;208.40;53.65;;;;;;;6.97;100.00;100200.38;10529532;28;20047;-78
2022/12/22 06:55:42;;;;;;;195.75;52.25;;;;;;;6.81;100.00;100193.78;10511877;28;20119;-78
2022/12/22 07:00:47;;;;;;;229.32;51.72;;;;;;;6.51;100.00;100190.47;10585107;28;20040;-78
2022/12/22 07:05:47;;;;;;;198.10;58.08;;;;;;;6.25;100.00;100204.47;10572957;27;20042;-78
2022/12/22 07:10:57;;;;;;;232.15;54.70;;;;;;;6.03;100.00;100204.28;10570033;27;20027;-79
2022/12/22 07:15:57;;;;;;;201.95;51.35;;;;;;;5.80;100.00;100199.66;10556038;28;20040;-78
2022/12/22 07:20:59;;;;;;;239.40;52.63;;;;;;;5.58;100.00;100193.16;10552735;27;20040;-78
2022/12/22 07:25:59;;;;;;;266.67;52.33;;;;;;;5.36;100.00;100192.94;10586276;28;20640;-78
2022/12/22 07:31:00;;;;;;;248.20;53.65;;;;;;;5.21;100.00;100201.59;10550332;27;20028;-77
2022/12/22 07:36:08;;;;;;;302.38;52.28;;;;;;;5.02;100.00;100212.59;10568475;27;20091;-78
2022/12/22 07:46:30;;;;;;;270.83;59.28;;;;;;;4.80;100.00;100233.28;10529454;28;20061;-77
2022/12/22 07:51:34;;;;;;;358.80;60.72;;;;;;;4.84;100.00;100245.38;10509971;28;20063;-78
2022/12/22 07:56:34;;;;;;;240.10;59.50;;;;;;;4.66;100.00;100232.63;10526403;28;20393;-77
2022/12/22 08:01:35;;;;;;;275.70;52.65;;;;;;;4.75;100.00;100246.75;10508945;28;20040;-77
2022/12/22 08:06:35;;;;;;;309.83;56.95;;;;;;;4.83;100.00;100257.34;10507313;28;20040;-78
2022/12/22 08:11:36;;;;;;;301.33;59.10;;;;;;;5.08;100.00;100259.91;10534684;27;20499;-77
2022/12/22 08:16:36;;;;;;;285.60;66.68;;;;;;;5.37;100.00;100250.00;10564175;27;20040;-78
2022/12/22 08:21:37;;;;;;;209.90;57.95;;;;;;;5.91;100.00;100276.38;10547846;27;20047;-79
2022/12/22 08:26:40;;;;;;;229.70;58.22;;;;;;;6.03;100.00;100277.25;10582299;27;20047;-78
2022/12/22 08:31:41;;;;;;;196.30;53.45;;;;;;;5.93;100.00;100264.16;10566067;27;20034;-78
2022/12/22 08:36:43;;;;;;;180.80;53.15;;;;;;;6.02;100.00;100265.50;10548959;27;20038;-77
2022/12/22 08:41:50;;;;;;;174.13;52.25;;;;;;;6.03;100.00;100282.72;10548110;27;20113;-77
2022/12/22 08:46:51;;;;;;;184.40;52.97;;;;;;;5.95;100.00;100286.63;10571514;28;20081;-77
2022/12/22 08:51:52;;;;;;;184.40;52.33;;;;;;;5.82;100.00;100293.13;10563463;27;20032;-77
2022/12/22 08:56:52;;;;;;;164.95;51.17;;;;;;;5.83;100.00;100292.09;10509434;28;20476;-78
2022/12/22 09:01:53;;;;;;;169.48;50.10;;;;;;;5.72;100.00;100289.34;10559594;27;20424;-78
2022/12/22 09:06:53;;;;;;;165.25;50.50;;;;;;;5.61;100.00;100285.53;10531190;28;20042;-78
2022/12/22 09:11:54;;;;;;;170.23;55.33;;;;;;;5.44;100.00;100282.66;10527269;28;20103;-77
2022/12/22 09:16:54;;;;;;;180.98;55.03;;;;;;;5.46;100.00;100308.66;10558519;28;20407;-78
2022/12/22 09:21:55;;;;;;;257.23;77.03;;;;;;;5.08;100.00;100250.91;10543676;28;20047;-78
2022/12/22 09:26:55;;;;;;;234.82;72.07;;;;;;;5.40;100.00;100304.13;10525158;27;20116;-77
2022/12/22 09:31:56;;;;;;;177.02;56.78;;;;;;;5.40;100.00;100308.78;10543287;27;20048;-78
2022/12/22 09:36:56;;;;;;;172.40;56.38;;;;;;;5.34;100.00;100305.06;10557600;28;20044;-78
2022/12/22 09:41:57;;;;;;;158.45;53.20;;;;;;;5.27;100.00;100320.69;10525768;27;20044;-77
2022/12/22 09:47:02;;;;;;;163.27;51.90;;;;;;;5.38;100.00;100327.28;10526475;28;20090;-77
2022/12/22 09:52:03;;;;;;;161.50;52.42;;;;;;;5.37;100.00;100325.59;10559805;28;20054;-78
2022/12/22 09:57:08;;;;;;;141.48;43.85;;;;;;;5.46;100.00;100351.53;10530118;27;20031;-77
2022/12/22 10:02:47;;;;;;;157.23;49.20;;;;;;;5.47;100.00;100336.78;10546184;28;20035;-77
2022/12/22 10:07:47;;;;;;;155.93;53.17;;;;;;;5.52;100.00;100319.69;10553583;28;20036;-78
2022/12/22 10:12:48;;;;;;;166.65;53.42;;;;;;;5.59;100.00;100323.16;10487602;28;20060;-77
2022/12/22 10:17:50;;;;;;;153.07;49.15;;;;;;;5.65;100.00;100333.97;10520901;28;20096;-79
2022/12/22 10:22:54;;;;;;;126.30;42.60;;;;;;;5.76;100.00;100340.53;10520883;28;20043;-78
2022/12/22 10:27:59;;;;;;;111.82;47.40;;;;;;;5.77;100.00;100352.31;10536474;28;20082;-78
2022/12/22 10:33:02;;;;;;;106.32;45.55;;;;;;;5.75;100.00;100360.72;10504255;28;20117;-79
2022/12/22 10:38:30;;;;;;;92.53;47.17;;;;;;;5.84;100.00;100363.94;10537655;28;20036;-78
2022/12/22 10:43:33;;;;;;;76.93;38.30;;;;;;;5.96;100.00;100366.72;10545916;27;20073;-78
2022/12/22 10:48:36;;;;;;;56.30;34.38;;;;;;;6.12;100.00;100366.03;10536875;27;20032;-77
2022/12/22 10:53:39;;;;;;;53.22;31.95;;;;;;;6.26;100.00;100366.59;10519696;28;20032;-74
2022/12/22 10:58:51;;;;;;;42.17;29.42;;;;;;;6.16;100.00;100350.81;10536873;28;20066;-76
2022/12/22 11:03:51;;;;;;;46.30;28.42;;;;;;;6.49;100.00;100356.72;10536776;28;20039;-77
2022/12/22 11:08:52;;;;;;;39.65;26.23;;;;;;;6.65;100.00;100365.00;10543272;28;20044;-79
2022/12/22 11:13:56;;;;;;;38.22;23.48;;;;;;;6.66;100.00;100354.91;10545648;28;20039;-80
2022/12/22 11:19:57;;;;;;;28.42;23.17;;;;;;;6.93;100.00;100355.19;10566437;27;20038;-77
2022/12/22 11:25:29;;;;;;;28.65;23.08;;;;;;;6.98;100.00;100355.28;10551505;27;20522;-78
2022/12/22 11:30:47;;;;;;;29.73;22.27;;;;;;;7.01;100.00;100352.06;10585399;27;20032;-77
2022/12/22 11:35:56;;;;;;;31.40;20.10;;;;;;;7.07;100.00;100367.53;10554622;27;20024;-77
2022/12/22 11:41:29;;;;;;;26.42;18.27;;;;;;;6.92;100.00;100375.41;10568969;28;20036;-78
2022/12/22 11:46:44;;;;;;;23.58;16.60;;;;;;;7.08;100.00;100369.16;10491306;28;20036;-78
2022/12/22 11:51:57;;;;;;;18.52;15.73;;;;;;;7.16;100.00;100359.75;10543721;28;20050;-79
2022/12/22 11:57:15;;;;;;;24.92;16.30;;;;;;;7.24;100.00;100358.53;10543436;28;20129;-78
2022/12/22 12:02:45;;;;;;;24.73;15.18;;;;;;;7.35;100.00;100363.09;10545423;28;20040;-79
2022/12/22 12:07:49;;;;;;;19.70;13.82;;;;;;;7.45;100.00;100363.28;10563906;27;20036;-79
2022/12/22 12:13:02;;;;;;;19.70;12.40;;;;;;;7.50;100.00;100362.53;10554782;27;20054;-78
2022/12/22 12:18:19;;;;;;;18.88;12.20;;;;;;;7.56;100.00;100371.69;10596836;27;20035;-78
2022/12/22 12:23:19;;;;;;;;;;;;;;;7.52;100.00;100363.13;10582384;27;20096;-78
2022/12/22 12:28:44;;;;;;;22.20;13.27;;;;;;;7.52;100.00;100362.31;10567944;27;20293;-79
2022/12/22 12:33:51;;;;;;;17.70;12.13;;;;;;;7.53;100.00;100336.59;10577490;28;20277;-78
2022/12/22 12:39:17;;;;;;;26.42;12.68;;;;;;;7.71;100.00;100358.28;10536335;28;20036;-76
2022/12/22 12:44:19;;;;;;;20.77;11.50;;;;;;;7.63;100.00;100355.94;10575875;27;20099;-75
2022/12/22 12:49:34;;;;;;;18.98;11.02;;;;;;;7.75;100.00;100356.72;10557218;27;20055;-80
2022/12/22 12:54:42;;;;;;;17.75;10.10;;;;;;;7.91;100.00;100352.28;10575633;27;20036;-79
2022/12/22 12:59:45;;;;;;;18.30;9.07;;;;;;;8.31;100.00;100354.00;10544732;27;20051;-78
2022/12/22 13:05:06;;;;;;;17.88;8.27;;;;;;;8.34;100.00;100355.41;10539009;27;20059;-78
2022/12/22 13:10:19;;;;;;;17.00;9.75;;;;;;;8.15;100.00;100361.16;10561578;28;20511;-79
2022/12/22 13:15:26;;;;;;;16.70;9.63;;;;;;;8.00;100.00;100367.25;10526319;28;20115;-77
2022/12/22 13:20:33;;;;;;;19.98;10.23;;;;;;;8.01;100.00;100362.59;10556372;28;20036;-78
2022/12/22 13:25:44;;;;;;;17.90;7.18;;;;;;;8.21;100.00;100351.13;10559248;28;20103;-77
2022/12/22 13:30:49;;;;;;;14.05;7.38;;;;;;;8.43;100.00;100364.88;10529430;27;20027;-77
2022/12/22 13:35:50;;;;;;;14.85;9.30;;;;;;;8.27;100.00;100369.31;10543622;28;20032;-77
2022/12/22 13:40:50;;;;;;;19.98;11.55;;;;;;;8.09;100.00;100384.94;10548288;28;20075;-78
2022/12/22 13:45:52;;;;;;;22.05;14.48;;;;;;;7.83;100.00;100370.00;10542049;27;20039;-80
2022/12/22 13:50:57;;;;;;;28.75;15.35;;;;;;;7.86;100.00;100379.63;10542745;28;20077;-78
2022/12/22 13:55:57;;;;;;;22.70;14.20;;;;;;;7.95;100.00;100369.06;10547348;28;20042;-79
2022/12/22 14:01:10;;;;;;;22.02;13.45;;;;;;;8.18;100.00;100374.38;10563077;28;20032;-78
2022/12/22 14:06:31;;;;;;;14.15;12.30;;;;;;;8.10;100.00;100380.28;10580207;28;20039;-78
2022/12/22 14:11:31;;;;;;;24.67;12.25;;;;;;;7.64;100.00;100317.31;10579469;28;20412;-77
2022/12/22 14:16:32;;;;;;;20.20;12.90;;;;;;;8.05;100.00;100381.03;10579474;28;20040;-77
2022/12/22 14:21:32;;;;;;;17.88;13.55;;;;;;;7.92;100.00;100399.72;10567784;28;20032;-77
2022/12/22 14:26:33;;;;;;;16.40;12.18;;;;;;;7.85;100.00;100392.50;10570489;28;20063;-77
2022/12/22 14:31:34;;;;;;;18.95;12.05;;;;;;;7.87;100.00;100400.47;10566295;28;20040;-77
2022/12/22 14:36:35;;;;;;;13.00;11.43;;;;;;;7.87;100.00;100393.09;10556902;28;20561;-80
2022/12/22 14:41:41;;;;;;;15.27;10.73;;;;;;;7.91;100.00;100387.09;10545599;27;20040;-77
2022/12/22 14:46:42;;;;;;;15.98;11.88;;;;;;;7.94;100.00;100379.22;10531988;27;20036;-77
2022/12/22 14:52:01;;;;;;;22.02;11.02;;;;;;;7.91;100.00;100384.34;10552850;27;20083;-77
2022/12/22 14:57:07;;;;;;;10.57;9.57;;;;;;;7.71;100.00;100366.50;10570788;27;20036;-78
2022/12/22 15:02:24;;;;;;;11.75;10.07;;;;;;;7.63;100.00;100373.22;10575208;28;20051;-83
2022/12/22 15:07:24;;;;;;;15.15;10.10;;;;;;;7.58;100.00;100375.84;10495012;28;20037;-77
2022/12/22 15:12:25;;;;;;;19.30;10.40;;;;;;;7.42;100.00;100361.06;10511742;28;20487;-79
2022/12/22 15:17:26;;;;;;;16.35;10.48;;;;;;;7.44;100.00;100382.69;10511093;28;20450;-81
2022/12/22 15:22:26;;;;;;;15.02;11.00;;;;;;;7.38;100.00;100383.69;10528027;28;20044;-80
2022/12/22 15:27:27;;;;;;;15.98;11.82;;;;;;;7.29;100.00;100369.56;10565480;27;20035;-80
2022/12/22 15:32:28;;;;;;;19.02;12.40;;;;;;;7.32;100.00;100398.34;10549696;27;20036;-81
2022/12/22 15:37:28;;;;;;;16.17;13.27;;;;;;;7.28;100.00;100404.34;10563948;27;20088;-82
2022/12/22 15:42:29;;;;;;;20.48;15.07;;;;;;;7.28;100.00;100400.78;10565120;27;20052;-81
2022/12/22 15:47:29;;;;;;;17.27;15.00;;;;;;;7.29;100.00;100405.16;10547398;27;20032;-81
2022/12/22 15:52:30;;;;;;;18.67;15.43;;;;;;;7.22;100.00;100385.31;10528317;28;20043;-81
2022/12/22 15:57:30;;;;;;;17.17;15.68;;;;;;;7.20;100.00;100398.41;10559305;27;20059;-77
2022/12/22 16:02:31;;;;;;;17.65;15.70;;;;;;;7.15;100.00;100390.94;10545044;27;20050;-81
2022/12/22 16:07:31;;;;;;;19.95;16.88;;;;;;;7.12;100.00;100396.06;10567661;27;20040;-83
2022/12/22 16:12:33;;;;;;;20.67;18.08;;;;;;;7.16;100.00;100402.72;10564559;28;20548;-82
2022/12/22 16:17:33;;;;;;;22.13;18.05;;;;;;;7.21;100.00;100411.03;10565833;27;20044;-82
2022/12/22 16:22:34;;;;;;;21.30;19.13;;;;;;;7.16;100.00;100409.03;10544672;27;20086;-86
2022/12/22 16:27:35;;;;;;;21.85;18.38;;;;;;;7.11;100.00;100406.19;10513336;27;20040;-83
2022/12/22 16:32:35;;;;;;;25.88;19.92;;;;;;;7.04;100.00;100400.00;10531501;27;20047;-84
2022/12/22 16:37:36;;;;;;;22.45;20.15;;;;;;;6.99;100.00;100381.59;10581205;27;20054;-86
2022/12/22 16:42:37;;;;;;;24.83;21.85;;;;;;;6.94;100.00;100378.72;10534307;28;20048;-82
2022/12/22 16:47:37;;;;;;;23.52;21.13;;;;;;;6.86;100.00;100368.16;10544596;27;20043;-73
2022/12/22 16:52:39;;;;;;;24.13;21.60;;;;;;;6.90;100.00;100372.06;10541639;27;20407;-86
2022/12/22 16:57:39;;;;;;;35.58;27.35;;;;;;;6.89;100.00;100367.69;10520269;28;20032;-87
2022/12/22 17:02:40;;;;;;;51.00;43.15;;;;;;;6.90;100.00;100372.06;10520855;28;20036;-86
2022/12/22 17:07:40;;;;;;;33.50;25.35;;;;;;;6.84;100.00;100352.00;10523386;28;20074;-85
2022/12/22 17:12:40;;;;;;;26.35;23.70;;;;;;;6.62;100.00;100321.72;10523223;28;20047;-86
2022/12/22 17:17:41;;;;;;;39.25;24.98;;;;;;;6.84;100.00;100368.44;10546705;27;20190;-85
2022/12/22 17:22:48;;;;;;;32.10;25.90;;;;;;;6.85;100.00;100363.78;10582273;27;20036;-87
2022/12/22 17:27:49;;;;;;;30.75;25.65;;;;;;;6.78;100.00;100357.59;10544041;27;20458;-87
2022/12/22 17:32:51;;;;;;;34.03;26.90;;;;;;;6.87;100.00;100364.38;10546276;27;20042;-85
2022/12/22 17:37:52;;;;;;;34.38;27.45;;;;;;;6.87;100.00;100356.16;10582356;27;20039;-86
2022/12/22 17:42:52;;;;;;;36.22;29.65;;;;;;;6.85;100.00;100353.66;10547114;27;20038;-83
2022/12/22 17:47:53;;;;;;;41.53;29.80;;;;;;;6.84;100.00;100351.16;10580692;27;20035;-85
2022/12/22 17:52:54;;;;;;;38.65;32.40;;;;;;;6.77;100.00;100353.22;10580015;28;20054;-86
2022/12/22 17:57:55;;;;;;;42.83;31.75;;;;;;;6.62;100.00;100327.19;10539073;28;20059;-86
2022/12/22 18:02:56;;;;;;;41.80;31.88;;;;;;;6.58;100.00;100326.03;10553022;28;20045;-87
2022/12/22 18:07:57;;;;;;;41.17;32.47;;;;;;;5.57;100.00;100175.94;10565159;28;20039;-85
2022/12/22 18:12:59;;;;;;;39.45;31.70;;;;;;;6.55;100.00;100323.78;10582371;28;20059;-83
2022/12/22 18:17:59;;;;;;;40.78;31.77;;;;;;;6.59;100.00;100321.38;10562629;27;20032;-87
2022/12/22 18:23:00;;;;;;;42.80;32.75;;;;;;;6.47;100.00;100303.09;10579532;28;20479;-86
2022/12/22 18:28:00;;;;;;;41.45;32.15;;;;;;;6.40;100.00;100288.72;10534790;28;20059;-86
2022/12/22 18:33:01;;;;;;;40.67;31.98;;;;;;;6.49;100.00;100311.06;10545901;28;20051;-73
2022/12/22 18:38:01;;;;;;;40.70;31.90;;;;;;;6.39;100.00;100295.28;10580131;28;20035;-83
2022/12/22 18:43:02;;;;;;;45.50;33.70;;;;;;;6.41;100.00;100303.25;10558396;28;20051;-85
2022/12/22 18:48:03;;;;;;;43.10;32.90;;;;;;;6.09;100.00;100251.69;10579000;28;20040;-85
2022/12/22 18:53:32;;;;;;;46.08;33.53;;;;;;;6.37;100.00;100299.31;10578918;28;20062;-86
2022/12/22 18:58:33;;;;;;;55.55;34.25;;;;;;;6.34;100.00;100291.59;10571426;28;20066;-85
2022/12/22 19:03:33;;;;;;;49.08;33.55;;;;;;;6.28;100.00;100276.16;10535240;28;20117;-85
2022/12/22 19:08:34;;;;;;;56.97;36.67;;;;;;;6.29;100.00;100286.03;10586799;28;20055;-85
2022/12/22 19:13:38;;;;;;;57.22;35.88;;;;;;;6.28;100.00;100281.63;10527612;28;20541;-86
2022/12/22 19:18:39;;;;;;;53.63;35.30;;;;;;;5.88;100.00;100222.25;10565614;28;20032;-86
2022/12/22 19:23:39;;;;;;;54.40;35.53;;;;;;;6.19;100.00;100283.91;10562716;28;20036;-86
2022/12/22 19:28:41;;;;;;;55.25;36.60;;;;;;;6.19;100.00;100295.66;10585547;27;20403;-81
2022/12/22 19:33:41;;;;;;;57.08;35.85;;;;;;;6.18;100.00;100288.53;10553912;27;20027;-85
2022/12/22 19:38:43;;;;;;;66.03;38.53;;;;;;;6.20;100.00;100283.66;10569999;27;20510;-85
2022/12/22 19:43:43;;;;;;;65.10;37.08;;;;;;;6.21;100.00;100274.38;10555527;27;20039;-86
2022/12/22 19:48:46;;;;;;;64.40;36.80;;;;;;;6.23;100.00;100269.50;10590866;27;20051;-86
2022/12/22 19:53:46;;;;;;;62.33;36.45;;;;;;;6.22;100.00;100256.06;10583187;27;20052;-85
2022/12/22 19:58:47;;;;;;;68.65;38.88;;;;;;;6.19;100.00;100251.91;10587574;27;20039;-84
2022/12/22 20:03:47;;;;;;;63.50;37.20;;;;;;;6.14;100.00;100262.75;10548553;27;20149;-86
2022/12/22 20:08:48;;;;;;;68.18;37.53;;;;;;;6.03;100.00;100249.91;10550369;28;20115;-85
2022/12/22 20:13:48;;;;;;;66.55;38.50;;;;;;;5.98;100.00;100238.91;10550318;27;20101;-86
2022/12/22 20:18:49;;;;;;;68.68;39.22;;;;;;;5.90;100.00;100231.03;10536708;27;20035;-85
2022/12/22 20:23:50;;;;;;;68.45;37.35;;;;;;;5.86;100.00;100238.88;10561689;27;20040;-85
2022/12/22 20:28:50;;;;;;;70.28;40.17;;;;;;;5.83;100.00;100232.00;10550065;27;20039;-85
2022/12/22 20:33:53;;;;;;;77.78;39.67;;;;;;;5.50;100.00;100174.41;10567705;28;20103;-85
2022/12/22 20:38:54;;;;;;;76.05;41.70;;;;;;;5.85;100.00;100240.78;10556750;28;20038;-84
2022/12/22 20:43:55;;;;;;;77.10;44.00;;;;;;;5.84;100.00;100230.91;10563574;27;20036;-84
2022/12/22 20:48:57;;;;;;;76.80;42.53;;;;;;;5.85;100.00;100218.09;10551168;27;20499;-81
2022/12/22 20:53:58;;;;;;;80.15;42.03;;;;;;;5.81;100.00;100206.81;10551114;28;20020;-86
2022/12/22 20:59:01;;;;;;;79.80;43.03;;;;;;;5.79;100.00;100208.94;10584630;27;20039;-80
2022/12/22 21:04:01;;;;;;;71.90;40.13;;;;;;;5.84;100.00;100216.41;10546360;27;20108;-84
2022/12/22 21:09:02;;;;;;;91.15;44.75;;;;;;;5.73;100.00;100190.78;10551027;28;20039;-74
2022/12/22 21:14:02;;;;;;;82.97;43.80;;;;;;;5.84;100.00;100206.31;10524769;28;20085;-84
2022/12/22 21:19:03;;;;;;;89.68;42.90;;;;;;;5.78;100.00;100201.81;10578932;27;20046;-84
2022/12/22 21:24:04;;;;;;;87.13;43.83;;;;;;;5.82;100.00;100203.00;10534124;28;20066;-85
2022/12/22 21:29:06;;;;;;;83.80;44.80;;;;;;;5.77;100.00;100193.88;10582316;28;20039;-85
2022/12/22 21:34:09;;;;;;;101.68;49.70;;;;;;;5.82;100.00;100197.53;10549791;27;20042;-84
2022/12/22 21:39:38;;;;;;;93.28;46.95;;;;;;;5.85;100.00;100191.59;10564345;28;20544;-85
2022/12/22 21:44:40;;;;;;;96.10;46.72;;;;;;;5.89;100.00;100191.97;10582340;28;20043;-85
2022/12/22 21:49:40;;;;;;;93.95;49.28;;;;;;;5.90;100.00;100192.78;10580956;27;20046;-86
2022/12/22 21:54:41;;;;;;;105.25;48.20;;;;;;;5.85;100.00;100180.66;10528065;28;20035;-86
2022/12/22 21:59:41;;;;;;;90.95;47.70;;;;;;;5.92;100.00;100190.66;10565362;28;20039;-85
2022/12/22 22:04:42;;;;;;;94.07;47.10;;;;;;;5.93;100.00;100195.03;10584592;28;20040;-84
2022/12/22 22:09:42;;;;;;;95.90;48.97;;;;;;;5.95;100.00;100195.63;10581667;28;20057;-83
2022/12/22 22:14:43;;;;;;;94.68;47.45;;;;;;;5.93;100.00;100197.75;10542808;28;20059;-73
2022/12/22 22:19:43;;;;;;;102.18;46.63;;;;;;;5.96;100.00;100192.69;10565842;28;20043;-86
2022/12/22 22:24:44;;;;;;;99.20;48.35;;;;;;;5.97;100.00;100198.97;10563823;28;20043;-84
2022/12/22 22:29:44;;;;;;;107.53;49.28;;;;;;;5.98;100.00;100190.53;10565498;28;20039;-85
2022/12/22 22:34:45;;;;;;;116.03;52.05;;;;;;;5.99;100.00;100186.72;10563345;28;20028;-84
2022/12/22 22:39:45;;;;;;;113.15;49.10;;;;;;;5.20;100.00;100080.66;10550339;28;20040;-80
2022/12/22 22:44:46;;;;;;;114.13;52.38;;;;;;;6.01;100.00;100197.41;10559711;28;20039;-84
2022/12/22 22:49:46;;;;;;;115.75;50.58;;;;;;;6.02;100.00;100188.16;10544570;28;20047;-85
2022/12/22 22:54:47;;;;;;;117.22;52.85;;;;;;;5.94;100.00;100169.38;10545908;27;20036;-85
2022/12/22 22:59:47;;;;;;;101.03;47.75;;;;;;;6.03;100.00;100185.16;10547090;28;20076;-84
2022/12/22 23:04:48;;;;;;;107.32;50.63;;;;;;;5.92;100.00;100155.13;10556270;27;20040;-85
2022/12/22 23:09:48;;;;;;;125.97;53.75;;;;;;;6.04;100.00;100183.28;10589044;27;20035;-85
2022/12/22 23:14:49;;;;;;;115.53;52.78;;;;;;;6.04;100.00;100184.09;10587265;27;20035;-72
2022/12/22 23:19:49;;;;;;;119.57;53.00;;;;;;;6.06;100.00;100189.34;10569818;27;20092;-85
2022/12/22 23:24:50;;;;;;;122.72;55.58;;;;;;;6.00;100.00;100176.63;10586972;27;20076;-85
2022/12/22 23:29:50;;;;;;;117.68;51.40;;;;;;;6.10;100.00;100184.19;10519226;27;20117;-85
2022/12/22 23:34:51;;;;;;;115.55;53.15;;;;;;;6.11;100.00;100183.97;10582019;27;20058;-87
2022/12/22 23:39:51;;;;;;;116.07;53.92;;;;;;;6.10;100.00;100187.78;10556736;27;20063;-85
2022/12/22 23:44:52;;;;;;;128.45;60.05;;;;;;;6.14;100.00;100183.50;10556637;28;20089;-87
2022/12/22 23:49:53;;;;;;;120.00;54.55;;;;;;;6.03;100.00;100165.22;10548256;28;20051;-86
2022/12/22 23:54:54;;;;;;;134.55;57.83;;;;;;;6.16;100.00;100192.28;10548328;28;20039;-87
2022/12/22 23:59:54;;;;;;;133.85;54.97;;;;;;;6.18;100.00;100195.59;10562408;27;20040;-87
